Time;durP1;ratioP1;P1;durP2;ratioP2;P2;SDS_P1;SDS_P2;PMS_P1;PMS_P2;Temp;Humidity;BMP_temperature;BMP_pressure;BME280_temperature;BME280_humidity;BME280_pressure;Samples;Min_cycle;Max_cycle;Signal;HPM_P1;HPM_P2
2023/02/11 00:00:11;;;;;;;11.63;8.27;;;2.80;76.90;;;;;;5103076;28;20104;-75
2023/02/11 00:02:36;;;;;;;12.13;7.40;;;2.80;76.60;;;;;;5100426;28;20028;-75
2023/02/11 00:05:02;;;;;;;11.03;7.67;;;2.90;76.90;;;;;;5134203;27;20027;-75
2023/02/11 00:07:29;;;;;;;10.47;7.80;;;2.90;76.90;;;;;;5102048;28;20023;-76
2023/02/11 00:09:55;;;;;;;11.23;8.27;;;2.80;77.40;;;;;;5099237;28;20471;-75
2023/02/11 00:12:21;;;;;;;11.13;8.23;;;2.80;78.00;;;;;;5102298;28;20048;-75
2023/02/11 00:14:47;;;;;;;9.63;8.10;;;2.70;78.20;;;;;;5102112;28;20387;-75
2023/02/11 00:17:12;;;;;;;11.97;8.37;;;2.70;78.20;;;;;;5098921;28;20391;-75
2023/02/11 00:19:38;;;;;;;13.37;8.50;;;2.70;78.00;;;;;;5100120;28;20146;-75
2023/02/11 00:22:04;;;;;;;14.37;8.73;;;2.70;77.80;;;;;;5101859;28;20016;-75
2023/02/11 00:24:30;;;;;;;11.17;8.50;;;2.70;77.90;;;;;;5100362;28;20117;-75
2023/02/11 00:26:56;;;;;;;10.50;8.13;;;2.70;77.90;;;;;;5102564;28;20020;-76
2023/02/11 00:29:21;;;;;;;9.67;7.87;;;2.70;77.90;;;;;;5105446;28;20024;-75
2023/02/11 00:31:47;;;;;;;11.50;8.63;;;2.70;78.20;;;;;;5099933;28;20051;-76
2023/02/11 00:34:13;;;;;;;11.63;8.50;;;2.70;78.60;;;;;;5101816;28;20019;-75
2023/02/11 00:36:39;;;;;;;12.77;8.50;;;2.70;78.60;;;;;;5101836;28;20210;-75
2023/02/11 00:39:05;;;;;;;9.17;7.57;;;2.70;78.90;;;;;;5100426;28;20099;-75
2023/02/11 00:41:31;;;;;;;12.27;8.50;;;2.60;78.20;;;;;;5103010;28;20077;-75
2023/02/11 00:43:57;;;;;;;9.53;7.67;;;2.60;77.70;;;;;;5099218;28;20032;-75
2023/02/11 00:46:22;;;;;;;9.27;7.30;;;2.70;78.00;;;;;;5101615;28;20027;-75
2023/02/11 00:48:50;;;;;;;10.30;7.27;;;2.60;78.80;;;;;;5101818;28;20036;-75
2023/02/11 00:51:16;;;;;;;11.57;7.60;;;2.60;78.90;;;;;;5103050;28;20034;-76
2023/02/11 00:53:42;;;;;;;7.83;7.00;;;2.60;78.90;;;;;;5105484;28;20070;-76
2023/02/11 00:56:08;;;;;;;10.53;7.90;;;2.60;78.90;;;;;;5099791;28;20060;-75
2023/02/11 00:58:34;;;;;;;9.63;7.53;;;2.60;79.00;;;;;;5099517;28;20024;-75
2023/02/11 01:01:00;;;;;;;9.17;7.23;;;2.60;78.40;;;;;;5102993;28;20034;-75
2023/02/11 01:03:26;;;;;;;9.33;7.10;;;2.60;78.20;;;;;;5099171;28;20019;-75
2023/02/11 01:05:52;;;;;;;12.40;7.90;;;2.60;78.00;;;;;;5100536;28;20028;-75
2023/02/11 01:08:18;;;;;;;9.83;7.13;;;2.50;78.00;;;;;;5101117;28;20080;-75
2023/02/11 01:10:43;;;;;;;8.60;7.23;;;2.50;78.30;;;;;;5101042;28;20165;-75
2023/02/11 01:13:09;;;;;;;9.07;7.33;;;2.50;78.50;;;;;;5099609;28;20028;-75
2023/02/11 01:15:35;;;;;;;9.13;6.73;;;2.50;78.30;;;;;;5102214;28;20020;-75
2023/02/11 01:18:01;;;;;;;9.10;6.90;;;2.50;78.90;;;;;;5100976;28;20028;-75
2023/02/11 01:20:28;;;;;;;8.43;6.73;;;2.50;79.70;;;;;;5134838;27;20387;-75
2023/02/11 01:22:54;;;;;;;10.23;7.47;;;2.40;79.60;;;;;;5102671;28;20119;-76
2023/02/11 01:25:20;;;;;;;10.00;7.13;;;2.40;80.30;;;;;;5101266;28;20498;-76
2023/02/11 01:27:45;;;;;;;8.87;7.00;;;2.40;79.10;;;;;;5099306;28;20051;-76
2023/02/11 01:30:12;;;;;;;8.90;6.60;;;2.40;78.70;;;;;;5099442;28;20027;-75
2023/02/11 01:32:39;;;;;;;9.77;7.20;;;2.40;78.90;;;;;;5102703;28;20085;-75
2023/02/11 01:35:05;;;;;;;8.57;7.17;;;2.40;79.70;;;;;;5102262;28;20429;-75
2023/02/11 01:37:34;;;;;;;9.27;6.77;;;2.40;80.20;;;;;;5101496;28;20027;-75
2023/02/11 01:40:02;;;;;;;10.73;7.07;;;2.40;80.40;;;;;;5100488;28;20024;-75
2023/02/11 01:42:28;;;;;;;8.60;6.53;;;2.40;80.10;;;;;;5099284;28;20114;-75
2023/02/11 01:44:54;;;;;;;8.30;6.67;;;2.40;80.20;;;;;;5103194;28;20115;-76
2023/02/11 01:47:20;;;;;;;9.73;6.70;;;2.40;80.40;;;;;;5103026;28;20089;-75
2023/02/11 01:49:57;;;;;;;8.07;6.50;;;2.40;80.40;;;;;;5103879;28;20030;-75
2023/02/11 01:52:38;;;;;;;9.20;6.70;;;2.30;80.30;;;;;;5103704;28;20130;-75
2023/02/11 01:57:58;;;;;;;8.00;6.40;;;2.30;80.50;;;;;;5104890;28;20039;-76
2023/02/11 02:00:27;;;;;;;11.03;7.40;;;2.30;80.40;;;;;;5111754;27;20019;-76
2023/02/11 02:03:03;;;;;;;7.67;6.53;;;2.30;80.20;;;;;;5115402;27;20035;-76
2023/02/11 02:05:48;;;;;;;7.43;6.33;;;2.30;80.10;;;;;;5113402;27;20115;-76
2023/02/11 02:08:20;;;;;;;10.73;7.13;;;2.30;80.40;;;;;;5111618;28;20032;-76
2023/02/11 02:10:48;;;;;;;7.85;6.38;;;2.30;80.70;;;;;;5111788;28;20501;-76
2023/02/11 02:13:14;;;;;;;9.13;7.33;;;2.30;80.50;;;;;;5110411;28;20016;-77
2023/02/11 02:16:05;;;;;;;9.53;6.50;;;2.30;80.60;;;;;;5109219;28;20016;-76
2023/02/11 02:18:43;;;;;;;8.30;7.40;;;2.30;80.60;;;;;;5094227;28;20027;-75
2023/02/11 02:21:28;;;;;;;10.27;6.70;;;2.30;80.30;;;;;;5113364;28;20111;-75
2023/02/11 02:23:59;;;;;;;9.10;7.47;;;2.30;80.40;;;;;;5109235;28;20076;-76
2023/02/11 02:26:34;;;;;;;7.28;6.55;;;2.30;80.30;;;;;;5108888;28;20036;-76
2023/02/11 02:29:23;;;;;;;10.27;6.63;;;2.40;80.60;;;;;;5109003;28;20080;-76
2023/02/11 02:32:00;;;;;;;12.30;6.43;;;2.40;80.50;;;;;;5101545;28;20075;-76
2023/02/11 02:34:48;;;;;;;9.83;6.80;;;2.30;80.40;;;;;;5096046;28;20031;-76
2023/02/11 02:37:20;;;;;;;11.87;6.37;;;2.30;81.10;;;;;;5101831;28;20024;-76
2023/02/11 02:39:48;;;;;;;7.90;6.53;;;2.30;80.70;;;;;;5100170;28;20039;-76
2023/02/11 02:42:14;;;;;;;11.23;7.10;;;2.30;80.20;;;;;;5107289;28;20024;-76
2023/02/11 02:44:46;;;;;;;8.13;6.33;;;2.30;80.50;;;;;;5106136;27;20023;-76
2023/02/11 02:47:11;;;;;;;8.55;6.68;;;2.30;80.40;;;;;;5096551;28;20435;-75
2023/02/11 02:49:37;;;;;;;9.63;6.47;;;2.30;80.40;;;;;;5105277;28;20074;-76
2023/02/11 02:52:23;;;;;;;9.43;7.00;;;2.30;80.80;;;;;;5103175;28;20063;-76
2023/02/11 02:54:48;;;;;;;8.90;7.10;;;2.20;82.20;;;;;;5073505;28;20028;-76
2023/02/11 02:57:51;;;;;;;6.67;5.97;;;2.20;82.80;;;;;;5105628;28;20050;-75
2023/02/11 03:00:30;;;;;;;10.57;6.80;;;2.20;82.10;;;;;;5101860;28;20111;-76
2023/02/11 03:03:26;;;;;;;10.13;6.97;;;2.10;82.20;;;;;;5113570;28;20024;-75
2023/02/11 03:06:11;;;;;;;8.40;7.17;;;2.10;82.10;;;;;;5093160;28;20497;-76
2023/02/11 03:08:42;;;;;;;8.83;6.87;;;2.10;82.30;;;;;;5111120;28;20403;-76
2023/02/11 03:11:10;;;;;;;9.10;6.70;;;2.20;81.50;;;;;;5104636;28;20034;-75
2023/02/11 03:13:40;;;;;;;7.67;6.30;;;2.10;81.80;;;;;;5100670;28;20028;-76
2023/02/11 03:16:24;;;;;;;7.97;7.00;;;2.20;82.40;;;;;;5101734;28;20097;-76
2023/02/11 03:19:04;;;;;;;9.53;6.80;;;2.20;82.30;;;;;;5099653;28;20028;-76
2023/02/11 03:21:32;;;;;;;9.80;6.30;;;2.10;83.10;;;;;;5101329;28;20039;-76
2023/02/11 03:24:04;;;;;;;6.50;5.90;;;2.10;84.00;;;;;;5099822;28;20028;-76
2023/02/11 03:26:41;;;;;;;9.05;6.53;;;2.10;83.20;;;;;;5101592;28;20028;-76
2023/02/11 03:29:17;;;;;;;10.10;6.70;;;2.00;83.90;;;;;;5101190;28;20017;-75
2023/02/11 03:31:49;;;;;;;8.50;6.13;;;1.90;84.10;;;;;;5100301;28;20549;-76
2023/02/11 03:34:46;;;;;;;8.70;6.25;;;1.90;84.30;;;;;;5104262;28;20023;-76
2023/02/11 03:37:13;;;;;;;8.53;6.37;;;1.90;85.00;;;;;;5090116;28;20111;-76
2023/02/11 03:39:46;;;;;;;7.80;6.43;;;2.00;85.10;;;;;;5099467;28;20431;-76
2023/02/11 03:42:13;;;;;;;9.90;6.80;;;1.90;85.30;;;;;;5100181;28;20031;-76
2023/02/11 03:44:46;;;;;;;9.97;6.67;;;1.80;87.10;;;;;;5106408;28;20019;-76
2023/02/11 03:47:16;;;;;;;7.53;6.53;;;1.60;87.80;;;;;;5100895;28;20028;-75
2023/02/11 03:49:44;;;;;;;12.17;7.00;;;1.60;88.80;;;;;;5103239;28;20054;-76
2023/02/11 03:52:12;;;;;;;12.13;7.40;;;1.60;89.90;;;;;;5103743;28;20535;-76
2023/02/11 03:54:39;;;;;;;9.10;6.80;;;1.60;90.00;;;;;;5098608;28;20431;-76
2023/02/11 03:57:05;;;;;;;8.70;6.83;;;1.50;90.10;;;;;;5101050;28;20021;-76
2023/02/11 03:59:30;;;;;;;8.93;6.97;;;1.50;90.10;;;;;;5102610;28;20490;-75
2023/02/11 04:01:58;;;;;;;9.67;6.83;;;1.40;90.30;;;;;;5106036;28;20072;-76
2023/02/11 04:04:24;;;;;;;8.03;6.87;;;1.40;91.10;;;;;;5099331;28;20028;-75
2023/02/11 04:06:49;;;;;;;9.97;6.67;;;1.40;91.60;;;;;;5098964;28;20475;-76
2023/02/11 04:09:15;;;;;;;8.70;7.60;;;1.30;92.20;;;;;;5107514;28;20068;-75
2023/02/11 04:11:41;;;;;;;10.10;7.40;;;1.20;92.40;;;;;;5135756;27;20024;-76
2023/02/11 04:14:06;;;;;;;11.17;7.67;;;1.20;92.40;;;;;;5138739;27;20077;-76
2023/02/11 04:16:32;;;;;;;11.20;8.00;;;1.20;91.90;;;;;;5098587;28;20119;-75
2023/02/11 04:18:58;;;;;;;11.07;8.23;;;1.20;91.60;;;;;;5103095;28;20024;-75
2023/02/11 04:21:23;;;;;;;8.40;7.47;;;1.10;92.10;;;;;;5103458;28;20072;-76
2023/02/11 04:23:49;;;;;;;9.83;7.40;;;1.10;92.60;;;;;;5100612;28;20033;-76
2023/02/11 04:26:15;;;;;;;9.33;7.50;;;1.10;92.30;;;;;;5133288;27;20075;-76
2023/02/11 04:28:40;;;;;;;10.37;8.90;;;1.20;92.10;;;;;;5103447;28;20099;-76
2023/02/11 04:31:06;;;;;;;10.73;8.17;;;1.20;92.00;;;;;;5103874;28;20055;-76
2023/02/11 04:33:32;;;;;;;12.90;8.53;;;1.10;92.70;;;;;;5101830;28;20034;-75
2023/02/11 04:35:57;;;;;;;12.80;8.80;;;1.00;93.40;;;;;;5102445;28;20161;-76
2023/02/11 04:38:23;;;;;;;10.03;7.73;;;1.10;93.20;;;;;;5099928;28;20028;-75
2023/02/11 04:40:49;;;;;;;15.23;10.57;;;1.10;92.60;;;;;;5101997;28;20410;-76
2023/02/11 04:43:15;;;;;;;15.77;9.80;;;1.00;92.80;;;;;;5099881;28;20028;-76
2023/02/11 04:45:41;;;;;;;14.17;9.57;;;1.00;93.30;;;;;;5099967;28;20020;-75
2023/02/11 04:48:06;;;;;;;17.27;10.93;;;1.00;93.10;;;;;;5102738;28;20532;-75
2023/02/11 04:50:32;;;;;;;15.57;10.67;;;0.90;93.50;;;;;;5100056;28;20391;-75
2023/02/11 04:52:57;;;;;;;10.90;8.30;;;1.00;93.30;;;;;;5096329;28;20050;-76
2023/02/11 04:55:23;;;;;;;12.03;7.23;;;1.00;92.70;;;;;;5101744;28;20106;-76
2023/02/11 04:57:49;;;;;;;8.47;6.33;;;1.10;92.00;;;;;;5099161;28;20031;-76
2023/02/11 05:00:15;;;;;;;7.70;5.90;;;1.20;91.40;;;;;;5101571;28;20118;-75
2023/02/11 05:02:41;;;;;;;11.87;8.13;;;1.20;91.30;;;;;;5116059;28;20028;-75
2023/02/11 05:05:07;;;;;;;19.50;12.40;;;1.30;91.60;;;;;;5100702;28;20026;-75
2023/02/11 05:07:32;;;;;;;19.57;12.20;;;1.20;92.80;;;;;;5101184;28;20106;-75
2023/02/11 05:09:58;;;;;;;26.73;13.27;;;1.20;93.20;;;;;;5102530;28;20030;-76
2023/02/11 05:12:24;;;;;;;26.47;14.13;;;1.00;93.30;;;;;;5098341;28;20028;-75
2023/02/11 05:14:49;;;;;;;23.90;13.13;;;0.80;94.00;;;;;;5102587;28;20024;-76
2023/02/11 05:17:15;;;;;;;28.60;15.70;;;0.90;94.00;;;;;;5100984;28;20020;-76
2023/02/11 05:19:41;;;;;;;39.33;18.13;;;0.90;94.30;;;;;;5101745;28;20020;-76
2023/02/11 05:22:07;;;;;;;32.77;16.90;;;0.80;95.10;;;;;;5109265;28;20024;-76
2023/02/11 05:24:33;;;;;;;33.50;16.73;;;0.60;95.40;;;;;;5109260;28;20368;-76
2023/02/11 05:27:00;;;;;;;33.30;17.33;;;0.60;95.50;;;;;;5102711;28;20028;-76
2023/02/11 05:29:25;;;;;;;39.57;19.43;;;0.70;95.60;;;;;;5103940;28;20016;-76
2023/02/11 05:31:51;;;;;;;31.57;18.00;;;0.60;96.40;;;;;;5136816;27;20411;-76
2023/02/11 05:34:17;;;;;;;30.77;17.60;;;0.50;96.30;;;;;;5106345;28;20023;-76
2023/02/11 05:36:42;;;;;;;28.43;16.50;;;0.50;96.70;;;;;;5102353;28;20016;-76
2023/02/11 05:39:08;;;;;;;27.93;14.50;;;0.60;96.50;;;;;;5105084;28;20438;-76
2023/02/11 05:41:34;;;;;;;23.07;12.33;;;0.60;96.70;;;;;;5105308;28;20031;-76
2023/02/11 05:44:00;;;;;;;15.27;9.50;;;0.50;96.40;;;;;;5103122;28;20030;-75
2023/02/11 05:46:25;;;;;;;12.00;8.40;;;0.60;96.00;;;;;;5106271;28;20394;-75
2023/02/11 05:48:51;;;;;;;11.37;8.77;;;0.70;95.70;;;;;;5102655;28;20078;-76
2023/02/11 05:51:16;;;;;;;14.10;9.10;;;0.80;95.60;;;;;;5135426;27;20081;-76
2023/02/11 05:53:42;;;;;;;16.97;9.23;;;0.60;95.60;;;;;;5105949;28;20035;-76
2023/02/11 05:56:09;;;;;;;10.90;6.83;;;0.60;96.20;;;;;;5106072;28;20102;-75
2023/02/11 05:58:35;;;;;;;14.13;8.83;;;0.70;95.40;;;;;;5103386;28;20021;-76
2023/02/11 06:01:00;;;;;;;13.83;8.50;;;0.70;95.60;;;;;;5137809;27;20020;-75
2023/02/11 06:03:26;;;;;;;8.83;6.47;;;0.70;95.50;;;;;;5104712;28;20032;-76
2023/02/11 06:05:52;;;;;;;9.97;7.17;;;0.80;94.50;;;;;;5105180;28;20046;-75
2023/02/11 06:08:17;;;;;;;10.40;6.40;;;0.80;94.40;;;;;;5135517;27;20119;-76
2023/02/11 06:10:46;;;;;;;9.87;6.63;;;0.90;94.30;;;;;;5110845;28;20034;-76
2023/02/11 06:13:12;;;;;;;8.33;6.20;;;1.00;93.70;;;;;;5103286;28;20482;-76
2023/02/11 06:15:38;;;;;;;7.43;6.30;;;1.00;93.70;;;;;;5102794;28;20020;-75
2023/02/11 06:18:04;;;;;;;12.23;7.90;;;0.90;93.80;;;;;;5105618;28;20032;-76
2023/02/11 06:20:29;;;;;;;10.87;7.00;;;0.90;94.50;;;;;;5102169;28;20491;-76
2023/02/11 06:22:55;;;;;;;14.53;8.13;;;0.80;94.90;;;;;;5107143;28;20024;-76
2023/02/11 06:25:21;;;;;;;13.50;9.07;;;0.80;95.80;;;;;;5103470;28;20023;-76
2023/02/11 06:27:46;;;;;;;8.43;6.77;;;0.60;97.10;;;;;;5131603;27;20032;-76
2023/02/11 06:30:13;;;;;;;7.73;6.27;;;0.60;96.30;;;;;;5137912;27;20542;-76
2023/02/11 06:32:38;;;;;;;7.93;6.70;;;0.70;95.30;;;;;;5101818;28;20181;-76
2023/02/11 06:35:04;;;;;;;9.77;7.73;;;0.70;95.40;;;;;;5103235;28;20344;-76
2023/02/11 06:37:30;;;;;;;25.07;10.90;;;0.80;95.80;;;;;;5103642;28;20036;-76
2023/02/11 06:39:55;;;;;;;17.50;10.57;;;0.80;97.50;;;;;;5102067;28;20494;-76
2023/02/11 06:42:21;;;;;;;13.77;9.43;;;0.60;98.50;;;;;;5101979;28;20504;-76
2023/02/11 06:44:47;;;;;;;15.47;10.13;;;0.40;98.40;;;;;;5102601;28;20031;-76
2023/02/11 06:47:12;;;;;;;10.33;7.67;;;0.40;99.20;;;;;;5104041;28;20034;-75
2023/02/11 06:49:38;;;;;;;9.17;7.23;;;0.40;98.50;;;;;;5105934;28;20111;-76
2023/02/11 06:52:04;;;;;;;8.43;6.40;;;0.50;97.30;;;;;;5107153;28;20056;-75
2023/02/11 06:54:29;;;;;;;8.00;5.93;;;0.70;95.70;;;;;;5104053;28;20031;-76
2023/02/11 07:11:23;;;;;;;35.23;18.63;;;1.00;94.40;;;;;;5126083;27;20765;-77
2023/02/11 07:13:49;;;;;;;17.90;11.93;;;1.30;96.90;;;;;;5118918;27;20028;-77
2023/02/11 07:16:17;;;;;;;16.33;10.73;;;1.10;97.60;;;;;;5102354;28;20055;-77
2023/02/11 07:18:43;;;;;;;13.63;8.73;;;1.10;97.90;;;;;;5100559;28;20024;-77
2023/02/11 07:21:11;;;;;;;11.70;8.33;;;1.10;97.00;;;;;;5100558;28;20023;-77
2023/02/11 07:23:39;;;;;;;16.20;9.37;;;1.20;96.70;;;;;;5102469;28;20027;-77
2023/02/11 07:26:07;;;;;;;13.90;9.80;;;1.20;97.80;;;;;;5112697;27;20024;-77
2023/02/11 07:28:34;;;;;;;11.47;8.13;;;1.20;98.30;;;;;;5119248;27;20027;-77
2023/02/11 07:31:13;;;;;;;13.57;8.60;;;1.30;97.50;;;;;;5115953;28;20095;-77
2023/02/11 07:33:39;;;;;;;11.93;8.20;;;1.30;97.60;;;;;;5116249;28;20027;-77
2023/02/11 07:36:06;;;;;;;13.87;8.03;;;1.30;98.20;;;;;;5118414;28;20539;-77
2023/02/11 07:38:33;;;;;;;12.37;7.60;;;1.40;97.30;;;;;;5102715;28;20457;-77
2023/02/11 07:41:00;;;;;;;10.07;7.00;;;1.50;96.40;;;;;;5099837;28;20556;-77
2023/02/11 07:43:26;;;;;;;10.20;7.60;;;1.60;95.50;;;;;;5101283;28;20439;-77
2023/02/11 07:45:52;;;;;;;9.80;6.93;;;1.60;94.50;;;;;;5101994;28;20059;-77
2023/02/11 07:48:18;;;;;;;12.20;7.87;;;1.70;94.10;;;;;;5099619;28;20053;-77
2023/02/11 07:50:43;;;;;;;10.03;7.43;;;1.70;94.40;;;;;;5093083;28;20479;-77
2023/02/11 07:53:09;;;;;;;20.63;11.37;;;1.80;95.10;;;;;;5101525;28;20051;-77
2023/02/11 07:55:35;;;;;;;23.47;14.43;;;1.80;95.60;;;;;;5101523;28;20053;-77
2023/02/11 07:58:00;;;;;;;32.13;16.80;;;1.90;97.00;;;;;;5118173;28;20084;-77
2023/02/11 08:00:26;;;;;;;28.73;17.13;;;1.90;97.40;;;;;;5098407;28;20076;-77
2023/02/11 08:02:52;;;;;;;28.73;17.83;;;1.90;97.40;;;;;;5120155;28;20118;-77
2023/02/11 08:05:17;;;;;;;40.20;22.13;;;1.90;97.00;;;;;;5118625;28;20027;-77
2023/02/11 08:07:43;;;;;;;32.07;18.63;;;1.90;97.60;;;;;;5118243;27;20028;-78
2023/02/11 08:10:08;;;;;;;28.97;17.90;;;1.90;95.60;;;;;;5117034;28;20047;-75
2023/02/11 08:12:34;;;;;;;33.10;19.40;;;1.90;95.40;;;;;;5118747;27;20031;-75
2023/02/11 08:15:00;;;;;;;34.40;19.83;;;2.00;95.70;;;;;;5105753;28;20036;-76
2023/02/11 08:17:25;;;;;;;30.77;16.30;;;2.10;95.20;;;;;;5086537;28;20505;-76
2023/02/11 08:19:51;;;;;;;26.53;14.57;;;2.10;95.20;;;;;;5122855;27;20031;-76
2023/02/11 08:22:20;;;;;;;17.30;11.83;;;2.20;94.70;;;;;;5103157;28;20387;-75
2023/02/11 08:24:45;;;;;;;16.67;10.40;;;2.30;94.70;;;;;;5121684;27;20027;-76
2023/02/11 08:27:11;;;;;;;14.00;10.23;;;2.30;94.50;;;;;;5104439;28;20445;-76
2023/02/11 08:29:36;;;;;;;15.23;10.30;;;2.40;94.20;;;;;;5085716;28;20483;-76
2023/02/11 08:32:02;;;;;;;18.00;11.53;;;2.40;94.00;;;;;;5084042;28;20066;-76
2023/02/11 08:34:28;;;;;;;25.27;14.30;;;2.40;92.40;;;;;;5084731;28;20036;-76
2023/02/11 08:36:53;;;;;;;22.63;14.30;;;2.40;93.10;;;;;;5087197;28;20031;-76
2023/02/11 08:39:21;;;;;;;35.13;17.80;;;2.40;94.40;;;;;;5086281;28;20020;-76
2023/02/11 08:41:53;;;;;;;28.87;17.43;;;2.40;95.20;;;;;;5084881;28;20023;-76
2023/02/11 08:44:20;;;;;;;32.25;19.42;;;2.50;95.30;;;;;;5079903;28;20039;-76
2023/02/11 08:46:46;;;;;;;34.93;18.43;;;2.50;95.40;;;;;;5104314;28;20024;-76
2023/02/11 08:49:11;;;;;;;32.60;18.20;;;2.50;95.00;;;;;;5105179;28;20024;-76
2023/02/11 08:51:37;;;;;;;29.27;18.27;;;2.60;94.90;;;;;;5102694;28;20016;-76
2023/02/11 08:54:03;;;;;;;34.97;20.27;;;2.60;94.90;;;;;;5121293;27;20496;-76
2023/02/11 08:56:30;;;;;;;38.77;20.77;;;2.70;94.00;;;;;;5103497;28;20394;-76
2023/02/11 08:58:56;;;;;;;37.70;20.17;;;2.70;93.00;;;;;;5103415;28;20020;-76
2023/02/11 09:01:24;;;;;;;34.77;21.47;;;2.80;92.20;;;;;;5084783;28;20066;-76
2023/02/11 09:03:50;;;;;;;39.63;22.40;;;2.90;92.30;;;;;;5099172;28;20024;-76
2023/02/11 09:06:17;;;;;;;50.67;26.13;;;2.90;92.70;;;;;;5085963;28;20442;-76
2023/02/11 09:08:45;;;;;;;53.23;26.90;;;2.90;92.40;;;;;;5104392;28;20099;-76
2023/02/11 09:11:11;;;;;;;51.73;27.37;;;2.90;90.80;;;;;;5101842;28;20481;-76
2023/02/11 09:13:39;;;;;;;58.50;27.53;;;3.00;90.80;;;;;;5084289;28;20028;-75
2023/02/11 09:16:05;;;;;;;58.53;29.27;;;3.00;91.10;;;;;;5103869;28;20545;-76
2023/02/11 09:18:31;;;;;;;65.37;31.13;;;3.10;90.50;;;;;;5086095;28;20485;-76
2023/02/11 09:21:08;;;;;;;69.40;32.60;;;3.10;91.00;;;;;;5101957;28;20548;-76
2023/02/11 09:23:34;;;;;;;77.67;37.27;;;3.20;91.60;;;;;;5083888;28;20034;-75
2023/02/11 09:26:08;;;;;;;85.40;40.60;;;3.20;91.60;;;;;;5104631;28;20052;-75
2023/02/11 09:28:33;;;;;;;99.47;45.63;;;3.30;91.70;;;;;;5064077;28;20552;-76
2023/02/11 09:31:11;;;;;;;105.13;50.20;;;3.40;91.80;;;;;;5099171;28;20024;-75
2023/02/11 09:33:38;;;;;;;114.07;54.03;;;3.50;91.60;;;;;;5097835;28;20474;-75
2023/02/11 09:36:05;;;;;;;113.77;54.37;;;3.50;91.50;;;;;;5085156;28;20386;-75
2023/02/11 09:38:31;;;;;;;116.33;55.93;;;3.60;91.50;;;;;;5103880;28;20027;-75
2023/02/11 09:40:58;;;;;;;125.13;60.43;;;3.60;91.30;;;;;;5083105;28;20016;-75
2023/02/11 09:43:35;;;;;;;131.13;61.40;;;3.60;91.70;;;;;;5105498;28;20027;-75
2023/02/11 09:46:01;;;;;;;128.87;62.13;;;3.70;91.10;;;;;;5101795;28;20027;-76
2023/02/11 09:48:31;;;;;;;135.53;66.47;;;3.70;91.50;;;;;;5104282;28;20016;-75
2023/02/11 09:51:00;;;;;;;145.57;70.00;;;3.70;90.90;;;;;;5100385;28;20023;-76
2023/02/11 09:53:29;;;;;;;160.13;78.03;;;3.60;91.20;;;;;;5103379;28;20077;-76
2023/02/11 09:55:58;;;;;;;185.60;83.70;;;3.70;91.30;;;;;;5100707;28;20065;-75
2023/02/11 09:58:28;;;;;;;196.27;86.80;;;3.70;91.20;;;;;;5083986;28;20024;-76
2023/02/11 10:01:01;;;;;;;199.13;90.37;;;3.80;90.50;;;;;;5080795;28;20024;-76
2023/02/11 10:03:37;;;;;;;188.57;89.13;;;3.80;90.40;;;;;;5100831;28;20458;-76
2023/02/11 10:06:18;;;;;;;188.13;86.23;;;3.90;89.70;;;;;;5104077;28;20028;-76
2023/02/11 10:08:47;;;;;;;183.13;86.80;;;3.90;89.10;;;;;;5082936;28;20111;-76
2023/02/11 10:11:43;;;;;;;185.30;87.60;;;4.00;88.70;;;;;;5082379;28;20038;-76
2023/02/11 10:14:14;;;;;;;184.27;89.33;;;4.10;90.10;;;;;;5081197;28;20414;-75
2023/02/11 10:17:11;;;;;;;199.77;95.15;;;4.30;90.00;;;;;;5083608;28;20024;-75
2023/02/11 10:20:14;;;;;;;199.33;89.33;;;4.40;90.40;;;;;;5103137;28;20023;-76
2023/02/11 10:23:01;;;;;;;174.13;77.90;;;4.50;90.10;;;;;;5100350;28;20401;-75
2023/02/11 10:25:32;;;;;;;176.82;85.15;;;4.50;87.20;;;;;;5100011;28;20028;-76
2023/02/11 10:28:00;;;;;;;201.05;92.97;;;4.50;88.60;;;;;;5100461;28;20020;-75
2023/02/11 10:30:35;;;;;;;198.02;97.22;;;4.50;90.30;;;;;;5077599;28;20542;-75
2023/02/11 10:33:31;;;;;;;223.73;103.03;;;4.50;90.40;;;;;;5103171;28;20053;-76
2023/02/11 10:35:58;;;;;;;206.98;97.65;;;4.60;90.70;;;;;;5100283;28;20093;-75
2023/02/11 10:38:24;;;;;;;202.35;98.75;;;4.60;90.00;;;;;;5102557;28;20487;-76
2023/02/11 10:40:49;;;;;;;166.02;82.95;;;4.60;90.40;;;;;;5081319;28;20421;-75
2023/02/11 10:43:27;;;;;;;165.98;80.05;;;4.70;90.60;;;;;;5100073;28;20028;-76
2023/02/11 10:45:54;;;;;;;143.00;68.82;;;4.80;88.10;;;;;;5082514;28;20028;-76
2023/02/11 10:48:42;;;;;;;142.05;66.28;;;4.80;86.60;;;;;;5103454;28;20027;-76
2023/02/11 10:51:28;;;;;;;136.32;64.55;;;4.80;85.90;;;;;;5101312;28;20032;-76
2023/02/11 10:54:07;;;;;;;134.23;62.40;;;4.90;87.00;;;;;;5100478;28;20085;-75
2023/02/11 10:56:37;;;;;;;100.60;51.22;;;5.00;89.80;;;;;;5099827;28;20454;-76
2023/02/11 10:59:12;;;;;;;95.03;48.40;;;5.10;88.80;;;;;;5100133;28;20035;-76
2023/02/11 11:02:03;;;;;;;105.55;50.50;;;5.10;89.20;;;;;;5078225;28;20356;-76
2023/02/11 11:04:29;;;;;;;108.35;53.75;;;5.30;88.80;;;;;;5079179;28;20028;-76
2023/02/11 11:06:55;;;;;;;120.03;56.45;;;5.40;88.20;;;;;;5083124;28;20493;-76
2023/02/11 11:09:29;;;;;;;127.65;60.58;;;5.40;89.20;;;;;;5099711;28;20050;-76
2023/02/11 11:12:14;;;;;;;113.88;56.97;;;5.60;88.90;;;;;;5098162;28;20035;-76
2023/02/11 11:14:39;;;;;;;107.75;53.92;;;5.70;89.40;;;;;;5065260;28;20082;-76
2023/02/11 11:17:17;;;;;;;94.65;49.15;;;5.80;89.10;;;;;;5100409;28;20498;-76
2023/02/11 11:19:43;;;;;;;119.10;56.63;;;5.90;88.00;;;;;;5062755;28;20021;-75
2023/02/11 11:22:20;;;;;;;127.00;56.63;;;6.10;90.20;;;;;;5084495;28;20073;-75
2023/02/11 11:24:52;;;;;;;118.30;56.83;;;6.20;90.20;;;;;;5103422;28;20102;-76
2023/02/11 11:27:24;;;;;;;127.85;60.53;;;6.30;89.70;;;;;;5101536;28;20073;-75
2023/02/11 11:29:55;;;;;;;125.45;58.83;;;6.20;89.30;;;;;;5083920;28;20032;-75
2023/02/11 11:32:32;;;;;;;113.32;55.17;;;6.30;90.30;;;;;;5097261;28;20484;-75
2023/02/11 11:35:19;;;;;;;99.80;50.30;;;6.30;89.90;;;;;;5081894;28;20028;-75
2023/02/11 11:37:53;;;;;;;98.60;47.72;;;6.30;86.70;;;;;;5098431;28;20031;-75
2023/02/11 11:40:23;;;;;;;102.90;47.92;;;6.30;85.30;;;;;;5097652;28;20031;-75
2023/02/11 11:43:04;;;;;;;100.45;48.03;;;6.30;86.00;;;;;;5100604;28;20020;-75
2023/02/11 11:45:30;;;;;;;95.88;43.28;;;6.30;86.90;;;;;;5101285;28;20059;-76
2023/02/11 11:48:05;;;;;;;87.10;44.72;;;6.30;85.80;;;;;;5084999;28;20055;-77
2023/02/11 11:51:03;;;;;;;92.25;49.30;;;6.30;86.00;;;;;;5101133;28;20028;-75
2023/02/11 11:53:35;;;;;;;91.20;46.17;;;6.40;87.10;;;;;;5093812;28;20051;-75
2023/02/11 11:56:12;;;;;;;93.25;46.33;;;6.40;85.20;;;;;;5106686;28;20420;-76
2023/02/11 11:58:38;;;;;;;96.57;48.33;;;6.40;84.90;;;;;;5087439;28;20546;-75
2023/02/11 12:01:25;;;;;;;133.90;59.38;;;6.50;83.70;;;;;;5102258;28;20052;-75
2023/02/11 12:04:35;;;;;;;132.68;57.70;;;6.50;84.50;;;;;;5085157;28;20027;-75
2023/02/11 12:07:21;;;;;;;112.53;55.40;;;6.60;85.30;;;;;;5065306;28;20414;-75
2023/02/11 12:10:16;;;;;;;112.40;53.38;;;6.60;85.60;;;;;;5084739;28;20047;-75
2023/02/11 12:13:26;;;;;;;108.22;51.92;;;6.60;86.10;;;;;;5068196;28;20119;-75
2023/02/11 12:16:23;;;;;;;83.90;44.45;;;6.60;85.80;;;;;;5086054;28;20059;-75
2023/02/11 12:19:13;;;;;;;85.60;43.17;;;6.60;87.00;;;;;;5065067;28;20038;-75
2023/02/11 12:22:13;;;;;;;77.68;41.38;;;6.60;85.60;;;;;;5066119;28;20029;-75
2023/02/11 12:25:06;;;;;;;79.47;41.22;;;6.50;85.40;;;;;;5069247;28;20056;-75
2023/02/11 12:27:49;;;;;;;70.45;39.65;;;6.50;86.40;;;;;;5067120;28;20028;-76
2023/02/11 12:30:23;;;;;;;70.38;37.03;;;6.50;85.90;;;;;;5099395;28;20019;-76
2023/02/11 12:33:01;;;;;;;74.72;37.08;;;6.60;85.30;;;;;;5097070;28;20051;-75
2023/02/11 12:35:47;;;;;;;67.97;36.08;;;6.60;84.20;;;;;;5077819;28;20032;-76
2023/02/11 12:38:21;;;;;;;63.90;33.72;;;6.70;85.00;;;;;;5076170;28;20024;-76
2023/02/11 12:41:03;;;;;;;61.63;32.90;;;6.70;83.60;;;;;;5101391;28;20382;-76
2023/02/11 12:43:41;;;;;;;50.10;30.50;;;6.80;83.10;;;;;;5085625;28;20019;-76
2023/02/11 12:46:42;;;;;;;54.03;31.35;;;6.90;84.00;;;;;;5100590;28;20061;-76
2023/02/11 12:49:22;;;;;;;58.83;33.42;;;7.00;85.10;;;;;;5100910;28;20551;-76
2023/02/11 12:52:00;;;;;;;62.58;33.15;;;7.10;85.50;;;;;;5105529;28;20059;-76
2023/02/11 12:54:37;;;;;;;65.30;33.50;;;7.20;85.30;;;;;;5084587;28;20038;-76
2023/02/11 12:57:10;;;;;;;63.92;33.50;;;7.30;83.70;;;;;;5099704;28;20402;-76
2023/02/11 12:59:48;;;;;;;55.33;31.77;;;7.30;82.40;;;;;;5102277;28;20027;-76
2023/02/11 13:02:33;;;;;;;64.65;33.65;;;7.40;81.00;;;;;;5100728;28;20023;-76
2023/02/11 13:05:22;;;;;;;58.90;34.38;;;7.50;80.90;;;;;;5095207;28;20754;-76
2023/02/11 13:07:51;;;;;;;58.17;32.20;;;7.40;81.50;;;;;;5092482;28;20019;-76
2023/02/11 13:10:26;;;;;;;62.38;31.63;;;7.40;82.10;;;;;;5060512;28;20067;-76
2023/02/11 13:15:40;;;;;;;54.30;29.15;;;7.30;82.20;;;;;;5053988;28;20099;-76
2023/02/11 13:18:43;;;;;;;49.47;29.45;;;7.40;82.10;;;;;;5058535;28;20074;-75
2023/02/11 13:21:43;;;;;;;54.28;29.10;;;7.40;82.00;;;;;;5055505;28;20487;-76